Terminal Aerodrome Forecast
Issued by NWS

Home | Current Version | Previous Version | Text Only | Print | Product List | Glossary On
Versions: 1 2 3 4 5 6 7 8 9 10 11 12 13 14 15 16 17 18 19 20 21 22 23 24 25 26 27 28 29
000
FTUS45 KBOU 232341
TAFAPA
TAF
KAPA 232341Z 2400/2424 01016G24KT 2SM -SN BR SCT004 BKN009 OVC020
      TEMPO 2400/2401 1/2SM -SN FZFG BKN004
     FM240200 01014KT 3SM -SN BR SCT004 BKN012 OVC020
      TEMPO 2402/2405 1SM -SN BR BKN004
     FM240600 36010KT 4SM -SHSN BR BKN005
     FM241400 34009KT P6SM VCSH SCT005 BKN015
     FM242100 04010KT P6SM SCT012 BKN040=

USA.gov is the U.S. government's official web portal to all federal, state and local government web resources and services.